Culver, Kentucky
Current Conditions -  °F | °C
As of 8:30 AM on Saturday 20 Dec 2014 (Local Time) from KSYM Reporting Station
Haze Haze  
Wind Chill: 28°   Ceiling: 3800
Heat Index: 28°   Visibility: 6mi
Dew Point: 25°   Wind: 3mph
Humidity: 86%   Direction: 60°ENE
Pressure: 30.28"   Gusts: NA
Location:  38.1397°N, 83.158°W
Report Text: KSYM 201330Z AUTO 06003KT 6SM HZ BKN038 OVC050 M02/M04 A3028 RMK AO2
Loading
Personal Weather Stations






























Interactive Weather Map New forecast layout! Learn more

10-Day Weather Forecast

Advertisements
Track Severe Weather on mobile